Observation data for Fluvanna on 08/14/2019      Previous  Date  Next       Current Mesonet Observations  Soil Data  Daily Summary Page  Observations in Plain Language
KFVS 140500Z 05012G17KT 29/18 A3007 RMK A01 T02880182  RH  056%=      5-min Rain = 0
KFVS 140505Z 05012G17KT 29/18 A3007 RMK A01 T02870182  RH  056%=      5-min Rain = 0
KFVS 140510Z 05013KT 29/18 A3007 RMK A01 T02870183  RH  056%=      5-min Rain = 0
KFVS 140515Z 06011G16KT 29/18 A3007 RMK A01 T02860183  RH  057%=      5-min Rain = 0
KFVS 140520Z 05012G17KT 29/18 A3007 RMK A01 T02850183  RH  057%=      5-min Rain = 0
KFVS 140525Z 06011KT 29/18 A3007 RMK A01 T02850183  RH  057%=      5-min Rain = 0
KFVS 140530Z 06012G17KT 28/18 A3007 RMK A01 T02840184  RH  058%=      5-min Rain = 0
KFVS 140535Z 06011KT 28/18 A3007 RMK A01 T02830184  RH  058%=      5-min Rain = 0
KFVS 140540Z 06011KT 28/18 A3007 RMK A01 T02830184  RH  058%=      5-min Rain = 0
KFVS 140545Z 06012G17KT 28/19 A3008 RMK A01 T02830185  RH  058%=      5-min Rain = 0
KFVS 140550Z 06012KT 28/19 A3008 RMK A01 T02830185  RH  058%=      5-min Rain = 0
KFVS 140555Z 06008G16KT 28/18 A3008 RMK A01 T02810184  RH  059%=      5-min Rain = 0
KFVS 140600Z 06010G15KT 28/18 A3008 RMK A01 T02800184  RH  059%=      5-min Rain = 0
KFVS 140605Z 06010KT 28/18 A3008 RMK A01 T02800184  RH  059%=      5-min Rain = 0
KFVS 140610Z 06010G15KT 28/19 A3007 RMK A01 T02790185  RH  060%=      5-min Rain = 0
KFVS 140615Z 05009G14KT 28/18 A3007 RMK A01 T02780184  RH  060%=      5-min Rain = 0
KFVS 140620Z 05008KT 28/18 A3008 RMK A01 T02760184  RH  060%=      5-min Rain = 0
KFVS 140625Z 05010KT 28/18 A3008 RMK A01 T02760184  RH  061%=      5-min Rain = 0
KFVS 140630Z 05009KT 28/18 A3008 RMK A01 T02750184  RH  061%=      5-min Rain = 0
KFVS 140635Z 06008KT 27/18 A3008 RMK A01 T02740184  RH  061%=      5-min Rain = 0
KFVS 140640Z 06007KT 27/19 A3008 RMK A01 T02720185  RH  062%=      5-min Rain = 0
KFVS 140645Z 05008KT 27/19 A3007 RMK A01 T02720185  RH  062%=      5-min Rain = 0
KFVS 140650Z 05009KT 27/19 A3008 RMK A01 T02710185  RH  062%=      5-min Rain = 0
KFVS 140655Z 05008KT 27/19 A3008 RMK A01 T02710185  RH  063%=      5-min Rain = 0
KFVS 140700Z 05007KT 27/19 A3008 RMK A01 T02700185  RH  063%=      5-min Rain = 0
KFVS 140705Z 05008KT 27/19 A3008 RMK A01 T02700186  RH  063%=      5-min Rain = 0
KFVS 140710Z 04008KT 27/19 A3007 RMK A01 T02700186  RH  063%=      5-min Rain = 0
KFVS 140715Z 04008KT 27/19 A3007 RMK A01 T02680186  RH  064%=      5-min Rain = 0
KFVS 140720Z 04009KT 27/19 A3007 RMK A01 T02670186  RH  064%=      5-min Rain = 0
KFVS 140725Z 04010KT 27/19 A3007 RMK A01 T02670186  RH  065%=      5-min Rain = 0
KFVS 140730Z 04011G16KT 27/19 A3007 RMK A01 T02660186  RH  065%=      5-min Rain = 0
KFVS 140735Z 05012G18KT 27/19 A3008 RMK A01 T02660187  RH  065%=      5-min Rain = 0
KFVS 140740Z 05012G19KT 27/19 A3008 RMK A01 T02660187  RH  065%=      5-min Rain = 0
KFVS 140745Z 04014KT 27/19 A3008 RMK A01 T02660187  RH  065%=      5-min Rain = 0
KFVS 140750Z 04012G18KT 27/19 A3008 RMK A01 T02650187  RH  066%=      5-min Rain = 0
KFVS 140755Z 04013G18KT 26/19 A3008 RMK A01 T02640186  RH  066%=      5-min Rain = 0
KFVS 140800Z 04012G17KT 26/19 A3008 RMK A01 T02640186  RH  066%=      5-min Rain = 0
KFVS 140805Z 04012G17KT 26/19 A3008 RMK A01 T02630185  RH  066%=      5-min Rain = 0
KFVS 140810Z 04012KT 26/19 A3008 RMK A01 T02630185  RH  066%=      5-min Rain = 0
KFVS 140815Z 04012G17KT 26/19 A3008 RMK A01 T02630185  RH  066%=      5-min Rain = 0
KFVS 140820Z 04011KT 26/19 A3007 RMK A01 T02620185  RH  066%=      5-min Rain = 0
KFVS 140825Z 05010KT 26/19 A3007 RMK A01 T02620185  RH  066%=      5-min Rain = 0
KFVS 140830Z 04010KT 26/18 A3007 RMK A01 T02610184  RH  066%=      5-min Rain = 0
KFVS 140835Z 04009KT 26/18 A3007 RMK A01 T02600184  RH  066%=      5-min Rain = 0
KFVS 140840Z 04009KT 26/19 A3008 RMK A01 T02600185  RH  067%=      5-min Rain = 0
KFVS 140845Z 04009KT 26/18 A3008 RMK A01 T02590184  RH  067%=      5-min Rain = 0
KFVS 140850Z 04010KT 26/18 A3008 RMK A01 T02590184  RH  067%=      5-min Rain = 0
KFVS 140855Z 03009KT 26/18 A3008 RMK A01 T02580184  RH  067%=      5-min Rain = 0
KFVS 140900Z 03008KT 26/18 A3007 RMK A01 T02570183  RH  067%=      5-min Rain = 0
KFVS 140905Z 04009KT 26/18 A3007 RMK A01 T02560183  RH  067%=      5-min Rain = 0
KFVS 140910Z 04011KT 26/18 A3007 RMK A01 T02560183  RH  067%=      5-min Rain = 0
KFVS 140915Z 03009G14KT 26/18 A3007 RMK A01 T02560183  RH  067%=      5-min Rain = 0
KFVS 140920Z 04007KT 25/18 A3007 RMK A01 T02540182  RH  068%=      5-min Rain = 0
KFVS 140925Z 04007KT 25/18 A3007 RMK A01 T02520182  RH  068%=      5-min Rain = 0
KFVS 140930Z 05006KT 25/18 A3007 RMK A01 T02510181  RH  069%=      5-min Rain = 0
KFVS 140935Z 04007KT 25/18 A3007 RMK A01 T02490181  RH  070%=      5-min Rain = 0
KFVS 140940Z 04008KT 25/18 A3007 RMK A01 T02490181  RH  070%=      5-min Rain = 0
KFVS 140945Z 05007KT 25/18 A3007 RMK A01 T02480181  RH  070%=      5-min Rain = 0
KFVS 140950Z 05008KT 25/18 A3007 RMK A01 T02480181  RH  070%=      5-min Rain = 0
KFVS 140955Z 05008KT 25/18 A3007 RMK A01 T02480181  RH  070%=      5-min Rain = 0
KFVS 141000Z 04008KT 25/18 A3007 RMK A01 T02480182  RH  070%=      5-min Rain = 0
KFVS 141005Z 04008KT 25/18 A3007 RMK A01 T02470182  RH  071%=      5-min Rain = 0
KFVS 141010Z 04009KT 25/18 A3008 RMK A01 T02470182  RH  071%=      5-min Rain = 0
KFVS 141015Z 03009KT 25/18 A3008 RMK A01 T02470182  RH  071%=      5-min Rain = 0
KFVS 141020Z 03009KT 25/18 A3009 RMK A01 T02450182  RH  071%=      5-min Rain = 0
KFVS 141025Z 03008KT 25/18 A3009 RMK A01 T02450181  RH  072%=      5-min Rain = 0
KFVS 141030Z 03008KT 24/18 A3009 RMK A01 T02440181  RH  072%=      5-min Rain = 0
KFVS 141035Z 03008KT 24/18 A3009 RMK A01 T02430181  RH  072%=      5-min Rain = 0
KFVS 141040Z 03008KT 24/18 A3009 RMK A01 T02420181  RH  072%=      5-min Rain = 0
KFVS 141045Z 03008KT 24/18 A3009 RMK A01 T02420181  RH  073%=      5-min Rain = 0
KFVS 141050Z 03007KT 24/18 A3009 RMK A01 T02410181  RH  073%=      5-min Rain = 0
KFVS 141055Z 03009KT 24/18 A3009 RMK A01 T02410181  RH  073%=      5-min Rain = 0
KFVS 141100Z 03009KT 24/18 A3009 RMK A01 T02410181  RH  073%=      5-min Rain = 0
KFVS 141105Z 03010G15KT 24/18 A301 RMK A01 T02400181  RH  073%=      5-min Rain = 0
KFVS 141110Z 04013G20KT 24/18 A301 RMK A01 T02400181  RH  073%=      5-min Rain = 0
KFVS 141115Z 03012G17KT 24/18 A301 RMK A01 T02400180  RH  073%=      5-min Rain = 0
KFVS 141120Z 04013G18KT 24/18 A301 RMK A01 T02390180  RH  073%=      5-min Rain = 0
KFVS 141125Z 04012G18KT 24/18 A301 RMK A01 T02390179  RH  073%=      5-min Rain = 0
KFVS 141130Z 03012G17KT 24/18 A3011 RMK A01 T02380179  RH  073%=      5-min Rain = 0
KFVS 141135Z 03013G19KT 24/18 A3011 RMK A01 T02380179  RH  073%=      5-min Rain = 0
KFVS 141140Z 03011G17KT 24/18 A3012 RMK A01 T02370179  RH  074%=      5-min Rain = 0
KFVS 141145Z 02012KT 24/18 A3012 RMK A01 T02360179  RH  074%=      5-min Rain = 0
KFVS 141150Z 03012KT 24/18 A3012 RMK A01 T02350178  RH  074%=      5-min Rain = 0
KFVS 141155Z 03013G19KT 24/18 A3013 RMK A01 T02350177  RH  074%=      5-min Rain = 0
KFVS 141200Z 03013KT 23/18 A3013 RMK A01 T02340176  RH  074%=      5-min Rain = 0
KFVS 141205Z 03011KT 23/18 A3013 RMK A01 T02330176  RH  074%=      5-min Rain = 0
KFVS 141210Z 03013G19KT 23/18 A3013 RMK A01 T02320175  RH  074%=      5-min Rain = 0
KFVS 141215Z 03014G19KT 23/17 A3013 RMK A01 T02310174  RH  074%=      5-min Rain = 0
KFVS 141220Z 03011G16KT 23/17 A3012 RMK A01 T02300174  RH  074%=      5-min Rain = 0
KFVS 141225Z 03015G20KT 23/17 A3013 RMK A01 T02300174  RH  074%=      5-min Rain = 0
KFVS 141230Z 03013KT 23/17 A3012 RMK A01 T02300174  RH  074%=      5-min Rain = 0
KFVS 141235Z 02012KT 23/17 A3013 RMK A01 T02290174  RH  075%=      5-min Rain = 0
KFVS 141240Z 02013KT 23/17 A3013 RMK A01 T02290174  RH  075%=      5-min Rain = 0
KFVS 141245Z 02014KT 23/17 A3014 RMK A01 T02270174  RH  076%=      5-min Rain = 0
KFVS 141250Z 02012G17KT 23/17 A3014 RMK A01 T02260174  RH  076%=      5-min Rain = 0
KFVS 141255Z 03014G19KT 23/18 A3014 RMK A01 T02260175  RH  077%=      5-min Rain = 0
KFVS 141300Z 02014KT 23/18 A3014 RMK A01 T02270175  RH  076%=      5-min Rain = 0
KFVS 141305Z 02013G18KT 23/18 A3014 RMK A01 T02270175  RH  076%=      5-min Rain = 0
KFVS 141310Z 02016G21KT 23/17 A3014 RMK A01 T02260174  RH  076%=      5-min Rain = 0
KFVS 141315Z 02016KT 23/17 A3014 RMK A01 T02260174  RH  076%=      5-min Rain = 0
KFVS 141320Z 02016G21KT 23/17 A3014 RMK A01 T02250172  RH  076%=      5-min Rain = 0
KFVS 141325Z 02014KT 23/17 A3015 RMK A01 T02260172  RH  075%=      5-min Rain = 0
KFVS 141330Z 02015KT 23/17 A3015 RMK A01 T02260172  RH  075%=      5-min Rain = 0
KFVS 141335Z 03014KT 23/17 A3015 RMK A01 T02270171  RH  074%=      5-min Rain = 0
KFVS 141340Z 02014G20KT 23/17 A3016 RMK A01 T02270170  RH  074%=      5-min Rain = 0
KFVS 141345Z 02012KT 23/17 A3016 RMK A01 T02270170  RH  074%=      5-min Rain = 0
KFVS 141350Z 01014KT 23/17 A3016 RMK A01 T02270170  RH  073%=      5-min Rain = 0
KFVS 141355Z 02014G19KT 23/17 A3016 RMK A01 T02280169  RH  073%=      5-min Rain = 0
KFVS 141400Z 02015KT 23/17 A3017 RMK A01 T02290169  RH  073%=      5-min Rain = 0
KFVS 141405Z 02017G22KT 23/17 A3017 RMK A01 T02290169  RH  073%=      5-min Rain = 0
KFVS 141410Z 03016G22KT 23/17 A3017 RMK A01 T02290170  RH  073%=      5-min Rain = 0
KFVS 141415Z 03015KT 23/17 A3018 RMK A01 T02310171  RH  073%=      5-min Rain = 0
KFVS 141420Z 02015KT 23/17 A3018 RMK A01 T02330172  RH  072%=      5-min Rain = 0
KFVS 141425Z 02015G21KT 24/17 A3018 RMK A01 T02350173  RH  072%=      5-min Rain = 0
KFVS 141430Z 03017G22KT 24/17 A3019 RMK A01 T02350173  RH  072%=      5-min Rain = 0
KFVS 141435Z 03015KT 24/17 A3019 RMK A01 T02380173  RH  071%=      5-min Rain = 0
KFVS 141440Z 02014G19KT 24/17 A3019 RMK A01 T02410174  RH  069%=      5-min Rain = 0
KFVS 141445Z 02015KT 24/17 A3019 RMK A01 T02420173  RH  069%=      5-min Rain = 0
KFVS 141450Z 01014G20KT 24/17 A3019 RMK A01 T02430174  RH  069%=      5-min Rain = 0
KFVS 141455Z 02014G22KT 25/18 A3019 RMK A01 T02480175  RH  067%=      5-min Rain = 0
KFVS 141500Z 03015KT 25/18 A3019 RMK A01 T02490175  RH  067%=      5-min Rain = 0
KFVS 141505Z 03014G19KT 25/18 A3019 RMK A01 T02520175  RH  066%=      5-min Rain = 0
KFVS 141510Z 03012KT 25/17 A3019 RMK A01 T02540174  RH  064%=      5-min Rain = 0
KFVS 141515Z 04013G19KT 26/18 A3019 RMK A01 T02570176  RH  064%=      5-min Rain = 0
KFVS 141520Z 03014KT 26/18 A3019 RMK A01 T02570176  RH  064%=      5-min Rain = 0
KFVS 141525Z 03013G19KT 26/18 A3019 RMK A01 T02620176  RH  062%=      5-min Rain = 0
KFVS 141530Z 04014G20KT 26/18 A3019 RMK A01 T02600175  RH  063%=      5-min Rain = 0
KFVS 141535Z 03013G18KT 26/18 A3019 RMK A01 T02640176  RH  061%=      5-min Rain = 0
KFVS 141540Z 03013G19KT 27/18 A3019 RMK A01 T02660176  RH  061%=      5-min Rain = 0
KFVS 141545Z 03014KT 27/18 A3019 RMK A01 T02670177  RH  061%=      5-min Rain = 0
KFVS 141550Z 03015KT 27/18 A3019 RMK A01 T02660176  RH  061%=      5-min Rain = 0
KFVS 141555Z 03012KT 27/18 A3019 RMK A01 T02670177  RH  061%=      5-min Rain = 0
KFVS 141600Z 03015KT 27/18 A3019 RMK A01 T02710178  RH  060%=      5-min Rain = 0
KFVS 141605Z 04014G19KT 27/18 A3019 RMK A01 T02710179  RH  060%=      5-min Rain = 0
KFVS 141610Z 03012G18KT 28/18 A3019 RMK A01 T02760179  RH  059%=      5-min Rain = 0
KFVS 141615Z 04013G20KT 28/18 A3019 RMK A01 T02790179  RH  058%=      5-min Rain = 0
KFVS 141620Z 05012G17KT 28/18 A3019 RMK A01 T02800179  RH  057%=      5-min Rain = 0
KFVS 141625Z 04013KT 28/18 A3018 RMK A01 T02790177  RH  057%=      5-min Rain = 0
KFVS 141630Z 05010G15KT 28/18 A3018 RMK A01 T02790178  RH  057%=      5-min Rain = 0
KFVS 141635Z 06013KT 29/18 A3018 RMK A01 T02870177  RH  054%=      5-min Rain = 0
KFVS 141640Z 05012G18KT 29/18 A3018 RMK A01 T02890177  RH  053%=      5-min Rain = 0
KFVS 141645Z 03015KT 29/18 A3018 RMK A01 T02880177  RH  054%=      5-min Rain = 0
KFVS 141650Z 03014KT 29/18 A3018 RMK A01 T02920178  RH  053%=      5-min Rain = 0
KFVS 141655Z 04014G19KT 29/18 A3018 RMK A01 T02940178  RH  052%=      5-min Rain = 0
KFVS 141700Z 04012G17KT 30/18 A3018 RMK A01 T02960179  RH  052%=      5-min Rain = 0
KFVS 141705Z 03014G19KT 30/18 A3017 RMK A01 T02980178  RH  051%=      5-min Rain = 0
KFVS 141710Z 03012G17KT 30/18 A3017 RMK A01 T02950178  RH  052%=      5-min Rain = 0
KFVS 141715Z 03013G20KT 30/18 A3017 RMK A01 T02980178  RH  051%=      5-min Rain = 0
KFVS 141720Z 03013G19KT 30/18 A3017 RMK A01 T02980177  RH  051%=      5-min Rain = 0
KFVS 141725Z 04013G20KT 30/18 A3016 RMK A01 T03010178  RH  050%=      5-min Rain = 0
KFVS 141730Z 04012G20KT 30/18 A3016 RMK A01 T03020177  RH  049%=      5-min Rain = 0
KFVS 141735Z 04013G19KT 31/18 A3016 RMK A01 T03060175  RH  048%=      5-min Rain = 0
KFVS 141740Z 03012G18KT 31/18 A3016 RMK A01 T03050175  RH  048%=      5-min Rain = 0
KFVS 141745Z 03012G17KT 31/18 A3016 RMK A01 T03080178  RH  048%=      5-min Rain = 0
KFVS 141750Z 04011G16KT 31/17 A3015 RMK A01 T03090173  RH  046%=      5-min Rain = 0
KFVS 141755Z 03011KT 31/17 A3015 RMK A01 T03120174  RH  046%=      5-min Rain = 0
KFVS 141800Z 03013G19KT 31/17 A3015 RMK A01 T03130169  RH  044%=      5-min Rain = 0
KFVS 141805Z 05013KT 31/17 A3015 RMK A01 T03110171  RH  045%=      5-min Rain = 0
KFVS 141810Z 05010KT 31/17 A3014 RMK A01 T03100173  RH  046%=      5-min Rain = 0
KFVS 141815Z 06011G16KT 31/17 A3014 RMK A01 T03120169  RH  045%=      5-min Rain = 0
KFVS 141820Z 06009G15KT 31/17 A3014 RMK A01 T03140168  RH  043%=      5-min Rain = 0
KFVS 141825Z 04011G21KT 32/17 A3014 RMK A01 T03180165  RH  042%=      5-min Rain = 0
KFVS 141830Z 03014G19KT 33/16 A3014 RMK A01 T03260158  RH  038%=      5-min Rain = 0
KFVS 141835Z 04011G17KT 32/16 A3014 RMK A01 T03180164  RH  042%=      5-min Rain = 0
KFVS 141840Z 06011G18KT 32/16 A3014 RMK A01 T03240160  RH  039%=      5-min Rain = 0
KFVS 141845Z 06011G16KT 33/16 A3013 RMK A01 T03260156  RH  038%=      5-min Rain = 0
KFVS 141850Z 06011G19KT 33/16 A3013 RMK A01 T03300156  RH  037%=      5-min Rain = 0
KFVS 141855Z 09011KT 33/16 A3013 RMK A01 T03260160  RH  039%=      5-min Rain = 0
KFVS 141900Z 07012G20KT 33/16 A3013 RMK A01 T03250159  RH  039%=      5-min Rain = 0
KFVS 141905Z 05009KT 33/16 A3012 RMK A01 T03270158  RH  038%=      5-min Rain = 0
KFVS 141910Z 07010G15KT 34/15 A3012 RMK A01 T03390154  RH  035%=      5-min Rain = 0
KFVS 141915Z 06009G15KT 33/15 A3012 RMK A01 T03330153  RH  036%=      5-min Rain = 0
KFVS 141920Z 06010G16KT 33/15 A3012 RMK A01 T03300154  RH  037%=      5-min Rain = 0
KFVS 141925Z 07009G17KT 34/15 A3012 RMK A01 T03350150  RH  035%=      5-min Rain = 0
KFVS 141930Z 07012G18KT 34/15 A3012 RMK A01 T03370150  RH  034%=      5-min Rain = 0
KFVS 141935Z 05012G17KT 34/14 A3011 RMK A01 T03400144  RH  032%=      5-min Rain = 0
KFVS 141940Z 05008G13KT 34/15 A3011 RMK A01 T03350148  RH  034%=      5-min Rain = 0
KFVS 141945Z 03011G16KT 34/15 A3011 RMK A01 T03380146  RH  033%=      5-min Rain = 0
KFVS 141950Z 07014G19KT 34/15 A3011 RMK A01 T03430149  RH  033%=      5-min Rain = 0
KFVS 141955Z 07012G20KT 34/14 A301 RMK A01 T03440139  RH  030%=      5-min Rain = 0
KFVS 142000Z 07011G18KT 34/14 A301 RMK A01 T03420141  RH  031%=      5-min Rain = 0
KFVS 142005Z 07013G19KT 34/14 A301 RMK A01 T03410142  RH  032%=      5-min Rain = 0
KFVS 142010Z 06012G18KT 34/14 A3009 RMK A01 T03420139  RH  031%=      5-min Rain = 0
KFVS 142015Z 04010G16KT 34/14 A3009 RMK A01 T03420141  RH  031%=      5-min Rain = 0
KFVS 142020Z 06010G16KT 35/14 A3008 RMK A01 T03450138  RH  030%=      5-min Rain = 0
KFVS 142025Z 07014G21KT 35/13 A3008 RMK A01 T03480131  RH  028%=      5-min Rain = 0
KFVS 142030Z 05010G19KT 34/13 A3007 RMK A01 T03440132  RH  029%=      5-min Rain = 0
KFVS 142035Z 05013G21KT 35/12 A3007 RMK A01 T03460123  RH  027%=      5-min Rain = 0
KFVS 142040Z 05011G21KT 35/13 A3007 RMK A01 T03480128  RH  028%=      5-min Rain = 0
KFVS 142045Z 07009G14KT 35/13 A3006 RMK A01 T03490133  RH  028%=      5-min Rain = 0
KFVS 142050Z 04009KT 35/13 A3006 RMK A01 T03520126  RH  027%=      5-min Rain = 0
KFVS 142055Z 05010G18KT 35/13 A3006 RMK A01 T03530125  RH  026%=      5-min Rain = 0
KFVS 142100Z 06013G20KT 35/13 A3006 RMK A01 T03520129  RH  027%=      5-min Rain = 0
KFVS 142105Z 05012G19KT 35/12 A3006 RMK A01 T03500118  RH  025%=      5-min Rain = 0
KFVS 142110Z 05012G19KT 35/12 A3006 RMK A01 T03540124  RH  026%=      5-min Rain = 0
KFVS 142115Z 06010G20KT 35/13 A3006 RMK A01 T03510127  RH  027%=      5-min Rain = 0
KFVS 142120Z 06014KT 36/12 A3006 RMK A01 T03560119  RH  025%=      5-min Rain = 0
KFVS 142125Z 04011G17KT 35/12 A3006 RMK A01 T03510119  RH  026%=      5-min Rain = 0
KFVS 142130Z 05014G22KT 35/12 A3006 RMK A01 T03540119  RH  025%=      5-min Rain = 0
KFVS 142135Z 05012G19KT 35/12 A3006 RMK A01 T03520124  RH  026%=      5-min Rain = 0
KFVS 142140Z 05010G17KT 36/13 A3006 RMK A01 T03570131  RH  027%=      5-min Rain = 0
KFVS 142145Z 06013G19KT 36/13 A3006 RMK A01 T03570128  RH  026%=      5-min Rain = 0
KFVS 142150Z 06014KT 35/13 A3006 RMK A01 T03510130  RH  028%=      5-min Rain = 0
KFVS 142155Z 07011G16KT 35/13 A3006 RMK A01 T03510132  RH  028%=      5-min Rain = 0
KFVS 142200Z 07009G16KT 35/13 A3005 RMK A01 T03530134  RH  028%=      5-min Rain = 0
KFVS 142205Z 04011KT 35/13 A3005 RMK A01 T03530126  RH  026%=      5-min Rain = 0
KFVS 142210Z 05010G15KT 35/13 A3005 RMK A01 T03510133  RH  028%=      5-min Rain = 0
KFVS 142215Z 10009G16KT 35/14 A3005 RMK A01 T03510137  RH  029%=      5-min Rain = 0
KFVS 142220Z 09010G17KT 35/14 A3005 RMK A01 T03510138  RH  029%=      5-min Rain = 0
KFVS 142225Z 05014G19KT 35/14 A3004 RMK A01 T03500139  RH  029%=      5-min Rain = 0
KFVS 142230Z 06011G16KT 35/14 A3004 RMK A01 T03500137  RH  029%=      5-min Rain = 0
KFVS 142235Z 07009G16KT 35/14 A3004 RMK A01 T03490138  RH  029%=      5-min Rain = 0
KFVS 142240Z 10006G11KT 35/13 A3004 RMK A01 T03450134  RH  029%=      5-min Rain = 0
KFVS 142245Z 07006G11KT 35/14 A3004 RMK A01 T03490136  RH  029%=      5-min Rain = 0
KFVS 142250Z 10011KT 35/14 A3004 RMK A01 T03520143  RH  030%=      5-min Rain = 0
KFVS 142255Z 09011G17KT 35/14 A3004 RMK A01 T03460142  RH  031%=      5-min Rain = 0
KFVS 142300Z 09010KT 35/14 A3004 RMK A01 T03470142  RH  031%=      5-min Rain = 0
KFVS 142305Z 07010KT 35/14 A3004 RMK A01 T03480142  RH  030%=      5-min Rain = 0
KFVS 142310Z 07008KT 35/14 A3005 RMK A01 T03450142  RH  031%=      5-min Rain = 0
KFVS 142315Z 10009G15KT 34/15 A3005 RMK A01 T03440145  RH  032%=      5-min Rain = 0
KFVS 142320Z 10007KT 34/14 A3005 RMK A01 T03430144  RH  032%=      5-min Rain = 0
KFVS 142325Z 11009KT 34/15 A3005 RMK A01 T03440145  RH  032%=      5-min Rain = 0
KFVS 142330Z 10009G14KT 34/15 A3004 RMK A01 T03430148  RH  032%=      5-min Rain = 0
KFVS 142335Z 10010KT 34/15 A3004 RMK A01 T03430150  RH  033%=      5-min Rain = 0
KFVS 142340Z 12009G14KT 34/15 A3004 RMK A01 T03410149  RH  033%=      5-min Rain = 0
KFVS 142345Z 09009G14KT 34/14 A3004 RMK A01 T03430144  RH  032%=      5-min Rain = 0
KFVS 142350Z 06009G14KT 34/15 A3004 RMK A01 T03410145  RH  032%=      5-min Rain = 0
KFVS 142355Z 08009KT 34/15 A3004 RMK A01 T03410147  RH  033%=      5-min Rain = 0
KFVS 150000Z 10008KT 34/15 A3004 RMK A01 T03410147  RH  033%=      5-min Rain = 0
KFVS 150005Z 09009KT 34/15 A3004 RMK A01 T03410146  RH  032%=      5-min Rain = 0
KFVS 150010Z 09009KT 34/15 A3004 RMK A01 T03380147  RH  033%=      5-min Rain = 0
KFVS 150015Z 09008KT 34/15 A3004 RMK A01 T03370146  RH  033%=      5-min Rain = 0
KFVS 150020Z 07009KT 34/15 A3004 RMK A01 T03350145  RH  033%=      5-min Rain = 0
KFVS 150025Z 08009KT 33/15 A3004 RMK A01 T03340146  RH  034%=      5-min Rain = 0
KFVS 150030Z 10009G14KT 33/15 A3004 RMK A01 T03330148  RH  034%=      5-min Rain = 0
KFVS 150035Z 09010KT 33/15 A3005 RMK A01 T03300150  RH  035%=      5-min Rain = 0
KFVS 150040Z 10008G13KT 33/15 A3005 RMK A01 T03290150  RH  036%=      5-min Rain = 0
KFVS 150045Z 10008KT 33/15 A3005 RMK A01 T03280150  RH  036%=      5-min Rain = 0
KFVS 150050Z 08006KT 33/15 A3005 RMK A01 T03270149  RH  036%=      5-min Rain = 0
KFVS 150055Z 09007G12KT 33/15 A3005 RMK A01 T03260149  RH  036%=      5-min Rain = 0
KFVS 150100Z 10010KT 32/15 A3006 RMK A01 T03240147  RH  036%=      5-min Rain = 0
KFVS 150105Z 10008KT 32/15 A3006 RMK A01 T03220148  RH  037%=      5-min Rain = 0
KFVS 150110Z 10008KT 32/15 A3006 RMK A01 T03200148  RH  037%=      5-min Rain = 0
KFVS 150115Z 10008KT 32/15 A3006 RMK A01 T03180150  RH  038%=      5-min Rain = 0
KFVS 150120Z 10006KT 32/15 A3006 RMK A01 T03150150  RH  039%=      5-min Rain = 0
KFVS 150125Z 11006KT 31/15 A3006 RMK A01 T03130148  RH  038%=      5-min Rain = 0
KFVS 150130Z 10006KT 31/15 A3006 RMK A01 T03110147  RH  039%=      5-min Rain = 0
KFVS 150135Z 11005KT 31/15 A3007 RMK A01 T03070146  RH  039%=      5-min Rain = 0
KFVS 150140Z 10007KT 31/15 A3007 RMK A01 T03060148  RH  040%=      5-min Rain = 0
KFVS 150145Z 10007KT 31/15 A3007 RMK A01 T03050149  RH  040%=      5-min Rain = 0
KFVS 150150Z 10007KT 30/15 A3007 RMK A01 T03040149  RH  041%=      5-min Rain = 0
KFVS 150155Z 10006KT 30/15 A3008 RMK A01 T03020149  RH  041%=      5-min Rain = 0
KFVS 150200Z 10006KT 30/15 A3008 RMK A01 T03000150  RH  042%=      5-min Rain = 0
KFVS 150205Z 10005KT 30/15 A3008 RMK A01 T02970150  RH  043%=      5-min Rain = 0
KFVS 150210Z 11006KT 29/15 A3008 RMK A01 T02940151  RH  044%=      5-min Rain = 0
KFVS 150215Z 10006KT 29/15 A3009 RMK A01 T02930152  RH  044%=      5-min Rain = 0
KFVS 150220Z 11006KT 29/15 A3009 RMK A01 T02910153  RH  045%=      5-min Rain = 0
KFVS 150225Z 11005KT 29/15 A3009 RMK A01 T02890154  RH  046%=      5-min Rain = 0
KFVS 150230Z 11006KT 29/16 A301 RMK A01 T02880155  RH  046%=      5-min Rain = 0
KFVS 150235Z 11006KT 29/16 A301 RMK A01 T02870155  RH  047%=      5-min Rain = 0
KFVS 150240Z 11006KT 29/16 A301 RMK A01 T02860156  RH  047%=      5-min Rain = 0
KFVS 150245Z 10006KT 28/16 A301 RMK A01 T02840157  RH  048%=      5-min Rain = 0
KFVS 150250Z 10006KT 28/16 A3011 RMK A01 T02840157  RH  048%=      5-min Rain = 0
KFVS 150255Z 11006KT 28/16 A3011 RMK A01 T02830158  RH  049%=      5-min Rain = 0
KFVS 150300Z 11006KT 28/16 A3011 RMK A01 T02820158  RH  049%=      5-min Rain = 0
KFVS 150305Z 11006KT 28/16 A3011 RMK A01 T02810158  RH  049%=      5-min Rain = 0
KFVS 150310Z 11006KT 28/16 A3011 RMK A01 T02800158  RH  050%=      5-min Rain = 0
KFVS 150315Z 10006KT 28/16 A3011 RMK A01 T02800158  RH  050%=      5-min Rain = 0
KFVS 150320Z 10006KT 28/16 A3011 RMK A01 T02800159  RH  050%=      5-min Rain = 0
KFVS 150325Z 10006KT 28/16 A3012 RMK A01 T02810159  RH  050%=      5-min Rain = 0
KFVS 150330Z 10006KT 28/16 A3012 RMK A01 T02810159  RH  050%=      5-min Rain = 0
KFVS 150335Z 10005KT 28/16 A3012 RMK A01 T02780159  RH  051%=      5-min Rain = 0
KFVS 150340Z 11006KT 28/16 A3012 RMK A01 T02760159  RH  051%=      5-min Rain = 0
KFVS 150345Z 10006KT 28/16 A3012 RMK A01 T02750158  RH  051%=      5-min Rain = 0
KFVS 150350Z 10006KT 28/16 A3012 RMK A01 T02750158  RH  051%=      5-min Rain = 0
KFVS 150355Z 09006KT 27/16 A3012 RMK A01 T02740157  RH  051%=      5-min Rain = 0
KFVS 150400Z 09006KT 27/16 A3012 RMK A01 T02720157  RH  052%=      5-min Rain = 0
KFVS 150405Z 10006KT 27/16 A3012 RMK A01 T02730158  RH  052%=      5-min Rain = 0
KFVS 150410Z 10006KT 27/16 A3012 RMK A01 T02730158  RH  052%=      5-min Rain = 0
KFVS 150415Z 10006KT 27/16 A3012 RMK A01 T02710158  RH  052%=      5-min Rain = 0
KFVS 150420Z 10006KT 27/16 A3012 RMK A01 T02690158  RH  053%=      5-min Rain = 0
KFVS 150425Z 10006KT 27/16 A3012 RMK A01 T02700159  RH  053%=      5-min Rain = 0
KFVS 150430Z 10006KT 27/16 A3012 RMK A01 T02710161  RH  053%=      5-min Rain = 0
KFVS 150435Z 09006KT 27/16 A3012 RMK A01 T02730163  RH  054%=      5-min Rain = 0
KFVS 150440Z 10007KT 28/16 A3013 RMK A01 T02750164  RH  053%=      5-min Rain = 0
KFVS 150445Z 10006KT 28/17 A3013 RMK A01 T02750165  RH  054%=      5-min Rain = 0
KFVS 150450Z 09006KT 28/17 A3013 RMK A01 T02750166  RH  054%=      5-min Rain = 0
KFVS 150455Z 06006KT 28/17 A3013 RMK A01 T02750166  RH  054%=      5-min Rain = 0

Page generated in 0.0127 seconds.